createdAt,value
2023-02-04T00:00:57.508Z,92.62
2023-02-04T00:05:00.839Z,92.49
2023-02-04T00:09:03.876Z,92.43
2023-02-04T00:13:06.839Z,92.04
2023-02-04T00:17:13.043Z,92.43
2023-02-04T00:21:15.983Z,91.84
2023-02-04T00:25:22.204Z,91.94
2023-02-04T00:29:25.588Z,92.69
2023-02-04T00:33:30.440Z,92.19
2023-02-04T00:37:34.010Z,92.58
2023-02-04T00:41:37.386Z,92.40
2023-02-04T00:45:40.204Z,91.27
2023-02-04T00:49:44.755Z,92.45
2023-02-04T00:53:47.564Z,92.91
2023-02-04T00:57:51.793Z,92.20
2023-02-04T01:01:54.982Z,92.42
2023-02-04T01:05:59.812Z,92.44
2023-02-04T01:10:06.838Z,93.12
2023-02-04T01:14:09.637Z,93.02
2023-02-04T01:18:14.016Z,92.07
2023-02-04T01:22:18.775Z,92.28
2023-02-04T01:26:22.090Z,92.88
2023-02-04T01:30:25.373Z,91.86
2023-02-04T01:34:28.209Z,92.31
2023-02-04T01:38:33.043Z,91.87
2023-02-04T01:42:36.422Z,91.72
2023-02-04T01:46:39.370Z,92.22
2023-02-04T01:50:42.301Z,92.21
2023-02-04T01:54:46.573Z,91.87
2023-02-04T01:58:50.587Z,91.78
2023-02-04T02:02:54.463Z,92.83
2023-02-04T02:06:59.748Z,92.73
2023-02-04T02:11:04.413Z,92.18
2023-02-04T02:15:08.167Z,92.66
2023-02-04T02:19:12.113Z,92.26
2023-02-04T02:23:16.553Z,91.81
2023-02-04T02:27:21.968Z,92.79
2023-02-04T02:31:25.520Z,92.60
2023-02-04T02:35:28.456Z,91.81
2023-02-04T02:39:32.057Z,92.50
2023-02-04T02:43:37.031Z,92.30
2023-02-04T02:47:40.913Z,92.17
2023-02-04T02:51:44.242Z,91.73
2023-02-04T02:55:47.372Z,92.20
2023-02-04T02:59:51.994Z,92.47
2023-02-04T03:03:58.834Z,91.96
2023-02-04T03:08:02.225Z,92.23
2023-02-04T03:12:06.672Z,92.00
2023-02-04T03:16:11.076Z,92.46
2023-02-04T03:20:15.392Z,91.21
2023-02-04T03:24:18.633Z,92.44
2023-02-04T03:28:21.881Z,91.55
2023-02-04T03:32:26.355Z,92.51
2023-02-04T03:36:29.256Z,91.02
2023-02-04T03:40:33.190Z,92.22
2023-02-04T03:44:36.783Z,93.76
2023-02-04T03:48:41.069Z,93.85
2023-02-04T03:52:44.825Z,93.58
2023-02-04T03:56:47.861Z,93.40
2023-02-04T04:00:51.417Z,94.71
2023-02-04T04:04:56.195Z,94.12
2023-02-04T04:08:59.201Z,93.50
2023-02-04T04:13:02.197Z,93.60
2023-02-04T04:17:05.636Z,92.58
2023-02-04T04:21:09.874Z,93.72
2023-02-04T04:25:13.271Z,93.86
2023-02-04T04:29:17.018Z,93.81
2023-02-04T04:33:20.061Z,92.89
2023-02-04T04:37:24.590Z,94.19
2023-02-04T04:41:27.353Z,95.50
2023-02-04T04:45:30.846Z,94.49
2023-02-04T04:49:33.679Z,95.72
2023-02-04T04:53:38.218Z,94.29
2023-02-04T04:57:42.392Z,95.76
2023-02-04T05:01:45.856Z,95.83
2023-02-04T05:05:49.791Z,93.78
2023-02-04T05:09:54.659Z,92.42
2023-02-04T05:13:58.235Z,92.85
2023-02-04T05:18:02.455Z,91.39
2023-02-04T05:22:05.690Z,92.65
2023-02-04T05:26:12.357Z,90.75
2023-02-04T05:30:17.186Z,90.28
2023-02-04T05:34:20.955Z,89.78
2023-02-04T05:38:24.347Z,90.74
2023-02-04T05:42:30.070Z,88.26
2023-02-04T05:46:34.421Z,90.08
2023-02-04T05:50:37.790Z,90.89
2023-02-04T05:54:41.539Z,91.00
2023-02-04T05:58:47.281Z,88.77
2023-02-04T06:02:50.435Z,88.44
2023-02-04T06:06:53.231Z,86.82
2023-02-04T06:10:56.887Z,87.03
2023-02-04T06:15:02.241Z,87.61
2023-02-04T06:19:05.975Z,89.87
2023-02-04T06:23:09.469Z,90.26
2023-02-04T06:27:12.548Z,90.60
2023-02-04T06:31:16.865Z,89.40
2023-02-04T06:35:20.105Z,88.73
2023-02-04T06:39:22.976Z,89.42
2023-02-04T06:43:28.049Z,91.81
2023-02-04T06:47:32.719Z,90.36
2023-02-04T06:51:35.691Z,91.77
2023-02-04T06:55:38.568Z,93.74
2023-02-04T06:59:43.211Z,93.95
2023-02-04T07:03:47.396Z,92.88
2023-02-04T07:07:50.549Z,92.99
2023-02-04T07:11:54.106Z,93.68
2023-02-04T07:15:57.130Z,93.28
2023-02-04T07:20:01.676Z,95.68
2023-02-04T07:24:04.887Z,94.44
2023-02-04T07:28:07.861Z,94.63
2023-02-04T07:32:17.025Z,93.74
2023-02-04T07:36:21.340Z,94.62
2023-02-04T07:40:24.061Z,94.78
2023-02-04T07:44:28.021Z,95.58
2023-02-04T07:48:31.143Z,94.20
2023-02-04T07:52:35.858Z,95.61
2023-02-04T07:56:39.369Z,93.41
2023-02-04T08:00:42.112Z,94.05
2023-02-04T08:04:44.912Z,94.54
2023-02-04T08:08:49.356Z,94.58
2023-02-04T08:12:52.189Z,94.07
2023-02-04T08:16:55.254Z,92.80
2023-02-04T08:20:59.207Z,92.89
2023-02-04T08:25:03.652Z,94.35
2023-02-04T08:29:06.767Z,93.46
2023-02-04T08:33:09.568Z,93.70
2023-02-04T08:37:13.470Z,94.29
2023-02-04T08:41:17.933Z,93.08
2023-02-04T08:45:21.196Z,93.19
2023-02-04T08:49:24.184Z,91.57
2023-02-04T08:53:27.803Z,89.62
2023-02-04T08:57:32.271Z,90.11
2023-02-04T09:01:35.454Z,89.49
2023-02-04T09:05:38.369Z,90.10
2023-02-04T09:09:41.203Z,87.61
2023-02-04T09:13:45.850Z,87.69
2023-02-04T09:17:48.816Z,86.94
2023-02-04T09:21:51.699Z,84.89
2023-02-04T09:25:54.656Z,82.85
2023-02-04T09:30:07.978Z,83.58
2023-02-04T09:34:10.939Z,79.88
2023-02-04T09:38:13.918Z,77.03
2023-02-04T09:42:17.516Z,80.73
2023-02-04T09:46:24.325Z,77.40
2023-02-04T09:50:32.289Z,78.77
2023-02-04T09:54:35.532Z,79.33
2023-02-04T09:58:38.329Z,78.45
2023-02-04T10:02:42.988Z,77.70
2023-02-04T10:06:45.869Z,75.39
2023-02-04T10:10:50.153Z,75.21
2023-02-04T10:14:53.126Z,76.34
2023-02-04T10:18:58.579Z,72.44
2023-02-04T10:23:01.390Z,73.46
2023-02-04T10:27:11.471Z,74.30
2023-02-04T10:31:30.723Z,74.24
2023-02-04T10:35:46.363Z,69.38
2023-02-04T10:39:49.864Z,70.80
2023-02-04T10:43:57.046Z,73.05
2023-02-04T10:47:59.948Z,72.89
2023-02-04T10:52:08.132Z,74.96
2023-02-04T10:56:15.848Z,71.91
2023-02-04T11:00:20.155Z,75.04
2023-02-04T11:04:23.330Z,71.48
2023-02-04T11:08:30.541Z,71.54
2023-02-04T11:12:48.158Z,75.82
2023-02-04T11:16:51.675Z,71.04
2023-02-04T11:20:56.784Z,73.03
2023-02-04T11:25:00.955Z,70.72
2023-02-04T11:29:24.448Z,70.97
2023-02-04T11:33:27.384Z,68.60
2023-02-04T11:37:36.957Z,70.40
2023-02-04T11:41:51.481Z,72.53
2023-02-04T11:46:03.082Z,70.29
2023-02-04T11:50:14.409Z,74.62
2023-02-04T11:54:19.276Z,73.78
2023-02-04T11:58:26.142Z,71.99
2023-02-04T12:02:29.315Z,71.20
2023-02-04T12:06:36.108Z,69.48
2023-02-04T12:10:39.567Z,73.08
2023-02-04T12:14:43.814Z,73.74
2023-02-04T12:18:46.794Z,66.98
2023-02-04T12:22:49.826Z,68.69
2023-02-04T12:26:53.313Z,71.17
2023-02-04T12:30:58.193Z,70.51
2023-02-04T12:35:01.207Z,68.44
2023-02-04T12:39:04.202Z,72.61
2023-02-04T12:43:08.269Z,71.44
2023-02-04T12:47:14.692Z,72.15
2023-02-04T12:51:18.530Z,69.47
2023-02-04T12:55:26.557Z,70.19
2023-02-04T12:59:31.227Z,71.73
2023-02-04T13:03:35.810Z,70.16
2023-02-04T13:07:40.616Z,67.73
2023-02-04T13:11:43.473Z,68.75
2023-02-04T13:15:47.335Z,71.36
2023-02-04T13:19:51.661Z,68.00
2023-02-04T13:23:54.697Z,70.29
2023-02-04T13:27:57.475Z,66.12
2023-02-04T13:32:00.574Z,66.82
2023-02-04T13:36:05.654Z,67.09
2023-02-04T13:40:09.683Z,68.04
2023-02-04T13:44:12.841Z,65.04
2023-02-04T13:48:15.915Z,66.28
2023-02-04T13:52:22.322Z,69.63
2023-02-04T13:56:25.333Z,68.82
2023-02-04T14:00:28.469Z,68.18
2023-02-04T14:04:31.626Z,69.34
2023-02-04T14:08:36.637Z,71.71
2023-02-04T14:12:39.725Z,70.72
2023-02-04T14:16:42.752Z,71.46
2023-02-04T14:20:46.129Z,70.70
2023-02-04T14:24:50.420Z,70.81
2023-02-04T14:28:53.225Z,68.80
2023-02-04T14:32:56.976Z,71.24
2023-02-04T14:36:59.765Z,69.32
2023-02-04T14:41:04.173Z,73.51
2023-02-04T14:45:08.491Z,70.41
2023-02-04T14:49:11.244Z,74.87
2023-02-04T14:53:14.492Z,72.27
2023-02-04T14:57:19.478Z,73.87
2023-02-04T15:01:22.371Z,75.33
2023-02-04T15:05:36.128Z,74.68
2023-02-04T15:09:39.192Z,72.29
2023-02-04T15:13:43.340Z,74.01
2023-02-04T15:17:46.076Z,71.61
2023-02-04T15:21:48.836Z,76.85
2023-02-04T15:25:52.309Z,71.96
2023-02-04T15:29:56.639Z,71.13
2023-02-04T15:33:59.646Z,69.36
2023-02-04T15:38:02.468Z,73.58
2023-02-04T15:42:05.684Z,73.49
2023-02-04T15:46:09.965Z,76.47
2023-02-04T15:50:15.193Z,74.08
2023-02-04T15:54:18.161Z,73.28
2023-02-04T15:58:21.058Z,74.47
2023-02-04T16:02:25.374Z,74.48
2023-02-04T16:06:30.742Z,75.22
2023-02-04T16:10:33.719Z,76.11
2023-02-04T16:14:37.140Z,76.14
2023-02-04T16:18:41.626Z,76.36
2023-02-04T16:22:45.690Z,77.11
2023-02-04T16:26:48.542Z,76.63
2023-02-04T16:30:51.411Z,76.90
2023-02-04T16:34:56.882Z,78.06
2023-02-04T16:39:00.419Z,82.63
2023-02-04T16:43:04.693Z,83.48
2023-02-04T16:47:08.409Z,82.54
2023-02-04T16:51:12.710Z,83.07
2023-02-04T16:55:15.608Z,81.90
2023-02-04T16:59:18.656Z,85.67
2023-02-04T17:03:21.735Z,84.91
2023-02-04T17:07:25.890Z,84.70
2023-02-04T17:11:31.578Z,83.76
2023-02-04T17:15:34.961Z,84.61
2023-02-04T17:19:38.778Z,84.38
2023-02-04T17:23:44.612Z,84.75
2023-02-04T17:27:50.570Z,85.81
2023-02-04T17:31:53.956Z,85.63
2023-02-04T17:35:57.030Z,86.01
2023-02-04T17:40:01.651Z,88.01
2023-02-04T17:44:05.101Z,86.11
2023-02-04T17:48:08.667Z,86.31
2023-02-04T17:52:12.552Z,87.39
2023-02-04T17:56:17.364Z,88.67
2023-02-04T18:00:22.015Z,88.29
2023-02-04T18:04:25.018Z,87.80
2023-02-04T18:08:31.855Z,88.15
2023-02-04T18:12:38.708Z,88.67
2023-02-04T18:16:42.677Z,88.96
2023-02-04T18:20:45.561Z,89.46
2023-02-04T18:24:49.682Z,90.37
2023-02-04T18:28:53.965Z,89.94
2023-02-04T18:32:57.453Z,90.16
2023-02-04T18:37:02.386Z,90.31
2023-02-04T18:41:21.656Z,90.20
2023-02-04T18:45:29.075Z,90.14
2023-02-04T18:49:35.652Z,90.08
2023-02-04T18:53:39.164Z,89.42
2023-02-04T18:57:42.973Z,89.08
2023-02-04T19:01:48.940Z,89.75
2023-02-04T19:05:52.843Z,89.85
2023-02-04T19:09:59.283Z,88.73
2023-02-04T19:14:03.560Z,90.88
2023-02-04T19:18:25.528Z,89.63
2023-02-04T19:22:37.478Z,91.05
2023-02-04T19:26:42.322Z,90.35
2023-02-04T19:30:47.318Z,89.30
2023-02-04T19:34:53.195Z,90.21
2023-02-04T19:38:58.589Z,91.58
2023-02-04T19:43:18.037Z,88.91
2023-02-04T19:47:29.029Z,89.07
2023-02-04T19:51:33.832Z,89.69
2023-02-04T19:55:44.265Z,90.23
2023-02-04T19:59:47.665Z,93.41
2023-02-04T20:03:51.057Z,91.23
2023-02-04T20:07:55.860Z,91.96
2023-02-04T20:12:06.089Z,90.45
2023-02-04T20:16:33.180Z,90.44
2023-02-04T20:20:40.583Z,92.39
2023-02-04T20:24:46.491Z,91.09
2023-02-04T20:28:51.042Z,91.32
2023-02-04T20:32:55.821Z,92.02
2023-02-04T20:37:00.561Z,91.53
2023-02-04T20:41:16.457Z,89.60
2023-02-04T20:45:34.093Z,90.37
2023-02-04T20:49:41.599Z,89.91
2023-02-04T20:53:50.280Z,89.82
2023-02-04T20:57:59.351Z,90.53
2023-02-04T21:02:04.922Z,90.49
2023-02-04T21:06:22.438Z,93.06
2023-02-04T21:10:25.897Z,92.04
2023-02-04T21:14:31.288Z,92.38
2023-02-04T21:18:35.445Z,91.74
2023-02-04T21:22:38.096Z,94.05
2023-02-04T21:26:42.517Z,92.54
2023-02-04T21:30:46.869Z,93.94
2023-02-04T21:34:50.212Z,93.66
2023-02-04T21:38:53.580Z,91.51
2023-02-04T21:42:57.177Z,92.34
2023-02-04T21:47:01.464Z,93.24
2023-02-04T21:51:04.881Z,91.68
2023-02-04T21:55:10.919Z,91.45
2023-02-04T21:59:15.137Z,92.17
2023-02-04T22:03:19.816Z,94.38
2023-02-04T22:07:22.840Z,94.71
2023-02-04T22:11:25.973Z,95.58
2023-02-04T22:15:29.399Z,95.54
2023-02-04T22:19:33.985Z,95.46
2023-02-04T22:23:37.034Z,94.28
2023-02-04T22:27:40.963Z,94.88
2023-02-04T22:31:44.738Z,93.08
2023-02-04T22:35:49.869Z,93.36
2023-02-04T22:39:54.750Z,94.91
2023-02-04T22:43:58.872Z,94.89
2023-02-04T22:48:02.373Z,94.36
2023-02-04T22:52:07.902Z,94.39
2023-02-04T22:56:10.820Z,94.13
2023-02-04T23:00:15.448Z,92.71
2023-02-04T23:04:18.943Z,94.51
2023-02-04T23:08:23.663Z,95.71
2023-02-04T23:12:26.688Z,95.98
2023-02-04T23:16:30.102Z,95.82
2023-02-04T23:20:34.298Z,93.08
2023-02-04T23:24:39.685Z,95.87
2023-02-04T23:28:42.915Z,95.95
2023-02-04T23:32:46.892Z,96.00
2023-02-04T23:36:51.393Z,96.82
2023-02-04T23:40:57.253Z,96.51
2023-02-04T23:45:00.604Z,96.14
2023-02-04T23:49:03.732Z,94.41
2023-02-04T23:53:06.622Z,92.58
2023-02-04T23:57:12.021Z,95.13
